createdAt,value
2018-12-15T00:00:53.916Z,0.94
2018-12-15T00:01:53.886Z,0.98
2018-12-15T00:02:53.878Z,1.16
2018-12-15T00:03:53.876Z,1.36
2018-12-15T00:04:53.878Z,1.37
2018-12-15T00:05:53.843Z,1.29
2018-12-15T00:06:53.843Z,1.32
2018-12-15T00:07:53.821Z,1.30
2018-12-15T00:08:53.810Z,1.37
2018-12-15T00:09:53.823Z,1.51
2018-12-15T00:10:53.786Z,1.50
2018-12-15T00:11:53.776Z,1.63
2018-12-15T00:12:53.793Z,1.55
2018-12-15T00:13:53.757Z,1.42
2018-12-15T00:14:53.768Z,1.44
2018-12-15T00:15:53.731Z,1.34
2018-12-15T00:16:53.728Z,1.26
2018-12-15T00:17:53.712Z,1.29
2018-12-15T00:18:53.729Z,1.34
2018-12-15T00:19:53.728Z,1.37
2018-12-15T00:20:53.688Z,1.34
2018-12-15T00:21:53.664Z,1.22
2018-12-15T00:22:53.656Z,1.24
2018-12-15T00:23:53.647Z,1.27
2018-12-15T00:24:53.784Z,1.18
2018-12-15T00:25:53.622Z,1.02
2018-12-15T00:26:53.611Z,0.93
2018-12-15T00:27:53.602Z,0.97
2018-12-15T00:28:53.588Z,1.02
2018-12-15T00:29:53.593Z,0.86
2018-12-15T00:30:53.625Z,0.88
2018-12-15T00:31:53.554Z,1.00
2018-12-15T00:32:53.544Z,1.09
2018-12-15T00:33:53.531Z,1.27
2018-12-15T00:34:53.521Z,1.42
2018-12-15T00:35:53.534Z,1.44
2018-12-15T00:36:53.547Z,1.50
2018-12-15T00:37:53.488Z,1.65
2018-12-15T00:38:53.498Z,1.60
2018-12-15T00:39:53.472Z,1.54
2018-12-15T00:40:53.478Z,1.50
2018-12-15T00:41:53.457Z,1.44
2018-12-15T00:42:53.469Z,1.52
2018-12-15T00:43:53.431Z,1.42
2018-12-15T00:44:53.409Z,1.36
2018-12-15T00:45:53.422Z,1.42
2018-12-15T00:46:53.386Z,1.32
2018-12-15T00:47:53.377Z,1.30
2018-12-15T00:48:53.392Z,1.45
2018-12-15T00:49:53.354Z,1.37
2018-12-15T00:50:53.381Z,1.47
2018-12-15T00:51:53.358Z,1.32
2018-12-15T00:52:53.327Z,1.32
2018-12-15T00:53:53.310Z,1.32
2018-12-15T00:54:53.329Z,1.32
2018-12-15T00:55:53.288Z,1.30
2018-12-15T00:56:53.306Z,1.05
2018-12-15T00:57:53.267Z,1.08
2018-12-15T00:58:53.253Z,1.22
2018-12-15T00:59:53.242Z,1.23
2018-12-15T01:00:53.247Z,1.37
2018-12-15T01:01:53.249Z,1.52
2018-12-15T01:02:53.209Z,1.40
2018-12-15T01:03:53.199Z,1.55
2018-12-15T01:04:53.188Z,1.63
2018-12-15T01:05:53.175Z,1.62
2018-12-15T01:06:53.229Z,1.60
2018-12-15T01:07:53.152Z,1.51
2018-12-15T01:08:53.142Z,1.44
2018-12-15T01:09:53.131Z,1.50
2018-12-15T01:10:53.122Z,1.52
2018-12-15T01:11:53.133Z,1.60
2018-12-15T01:12:53.135Z,1.54
2018-12-15T01:13:53.085Z,1.52
2018-12-15T01:14:53.077Z,1.58
2018-12-15T01:15:53.066Z,1.59
2018-12-15T01:16:53.081Z,1.45
2018-12-15T01:17:53.044Z,1.59
2018-12-15T01:18:53.052Z,1.66
2018-12-15T01:19:53.020Z,1.72
2018-12-15T01:20:53.015Z,1.83
2018-12-15T01:21:53.148Z,1.91
2018-12-15T01:22:52.988Z,2.00
2018-12-15T01:23:52.989Z,1.90
2018-12-15T01:24:52.977Z,1.84
2018-12-15T01:25:52.954Z,1.88
2018-12-15T01:26:52.942Z,1.80
2018-12-15T01:27:52.956Z,1.58
2018-12-15T01:28:52.919Z,1.60
2018-12-15T01:29:52.909Z,1.62
2018-12-15T01:30:52.936Z,1.70
2018-12-15T01:31:52.888Z,1.73
2018-12-15T01:32:52.903Z,1.91
2018-12-15T01:33:52.864Z,1.93
2018-12-15T01:34:52.855Z,1.99
2018-12-15T01:35:52.845Z,1.98
2018-12-15T01:36:52.858Z,1.99
2018-12-15T01:37:52.851Z,2.14
2018-12-15T01:38:52.812Z,2.14
2018-12-15T01:39:52.800Z,2.07
2018-12-15T01:40:52.790Z,1.98
2018-12-15T01:41:52.793Z,2.02
2018-12-15T01:42:52.792Z,1.99
2018-12-15T01:43:52.779Z,1.95
2018-12-15T01:44:52.788Z,1.69
2018-12-15T01:45:52.740Z,1.62
2018-12-15T01:46:52.723Z,1.62
2018-12-15T01:47:52.855Z,1.54
2018-12-15T01:48:52.705Z,1.45
2018-12-15T01:49:52.693Z,1.54
2018-12-15T01:50:52.689Z,1.50
2018-12-15T01:51:52.669Z,1.52
2018-12-15T01:52:52.658Z,1.59
2018-12-15T01:53:52.671Z,1.62
2018-12-15T01:54:52.636Z,1.54
2018-12-15T01:55:52.627Z,1.50
2018-12-15T01:56:52.643Z,1.30
2018-12-15T01:57:52.602Z,1.34
2018-12-15T01:58:52.616Z,1.29
2018-12-15T01:59:52.583Z,1.40
2018-12-15T02:00:52.574Z,1.36
2018-12-15T02:01:52.561Z,1.54
2018-12-15T02:02:52.545Z,1.70
2018-12-15T02:03:52.592Z,1.77
2018-12-15T02:04:52.529Z,1.76
2018-12-15T02:05:52.517Z,1.73
2018-12-15T02:06:52.507Z,1.68
2018-12-15T02:07:52.490Z,1.52
2018-12-15T02:08:52.528Z,1.45
2018-12-15T02:09:52.467Z,1.50
2018-12-15T02:10:52.456Z,1.24
2018-12-15T02:11:52.453Z,1.06
2018-12-15T02:12:52.434Z,1.06
2018-12-15T02:13:52.423Z,1.14
2018-12-15T02:14:52.456Z,1.16
2018-12-15T02:15:52.401Z,1.24
2018-12-15T02:16:52.460Z,1.40
2018-12-15T02:17:52.380Z,1.50
2018-12-15T02:18:52.369Z,1.50
2018-12-15T02:19:52.381Z,1.47
2018-12-15T02:20:52.356Z,1.51
2018-12-15T02:21:52.336Z,1.52
2018-12-15T02:22:52.324Z,1.47
2018-12-15T02:23:52.311Z,1.47
2018-12-15T02:24:52.327Z,1.29
2018-12-15T02:25:52.290Z,1.42
2018-12-15T02:26:52.292Z,1.45
2018-12-15T02:27:52.267Z,1.30
2018-12-15T02:28:52.256Z,1.27
2018-12-15T02:29:52.283Z,1.33
2018-12-15T02:30:52.234Z,1.40
2018-12-15T02:31:52.221Z,1.15
2018-12-15T02:32:52.231Z,1.12
2018-12-15T02:33:52.207Z,1.04
2018-12-15T02:34:52.187Z,1.08
2018-12-15T02:35:52.208Z,1.02
2018-12-15T02:36:52.187Z,1.18
2018-12-15T02:37:52.154Z,1.27
2018-12-15T02:38:52.158Z,1.30
2018-12-15T02:39:52.134Z,1.18
2018-12-15T02:40:52.147Z,1.14
2018-12-15T02:41:52.116Z,1.20
2018-12-15T02:42:52.100Z,1.23
2018-12-15T02:43:52.094Z,1.29
2018-12-15T02:44:52.096Z,1.23
2018-12-15T02:45:52.090Z,1.22
2018-12-15T02:46:52.057Z,1.14
2018-12-15T02:47:52.047Z,1.05
2018-12-15T02:48:52.034Z,1.15
2018-12-15T02:49:52.023Z,1.41
2018-12-15T02:50:52.093Z,1.29
2018-12-15T02:51:52.002Z,1.33
2018-12-15T02:52:51.990Z,1.29
2018-12-15T02:53:51.981Z,1.18
2018-12-15T02:54:51.981Z,1.06
2018-12-15T02:55:51.982Z,1.11
2018-12-15T02:56:51.966Z,1.14
2018-12-15T02:57:51.938Z,1.30
2018-12-15T02:58:51.925Z,1.22
2018-12-15T02:59:51.916Z,1.33
2018-12-15T03:00:51.932Z,1.45
2018-12-15T03:01:51.891Z,1.37
2018-12-15T03:02:51.901Z,1.36
2018-12-15T03:03:51.866Z,1.40
2018-12-15T03:04:51.855Z,1.42
2018-12-15T03:05:51.876Z,1.50
2018-12-15T03:06:51.834Z,1.44
2018-12-15T03:07:51.823Z,1.51
2018-12-15T03:08:51.855Z,1.60
2018-12-15T03:09:51.803Z,1.59
2018-12-15T03:10:51.788Z,1.63
2018-12-15T03:11:51.800Z,1.52
2018-12-15T03:12:51.767Z,1.41
2018-12-15T03:13:51.756Z,1.44
2018-12-15T03:14:51.786Z,1.66
2018-12-15T03:15:51.734Z,1.59
2018-12-15T03:16:51.745Z,1.54
2018-12-15T03:17:51.720Z,1.42
2018-12-15T03:18:51.706Z,1.34
2018-12-15T03:19:51.691Z,1.34
2018-12-15T03:20:51.680Z,1.06
2018-12-15T03:21:51.725Z,1.05
2018-12-15T03:22:51.659Z,0.97
2018-12-15T03:23:51.645Z,0.96
2018-12-15T03:24:51.642Z,1.06
2018-12-15T03:25:51.631Z,1.08
2018-12-15T03:26:51.639Z,1.16
2018-12-15T03:27:51.624Z,1.18
2018-12-15T03:28:51.596Z,1.33
2018-12-15T03:29:51.582Z,1.45
2018-12-15T03:30:51.572Z,1.62
2018-12-15T03:31:51.602Z,1.65
2018-12-15T03:32:51.551Z,1.51
2018-12-15T03:33:51.547Z,1.76
2018-12-15T03:34:51.535Z,1.68
2018-12-15T03:35:51.517Z,1.63
2018-12-15T03:36:51.505Z,1.45
2018-12-15T03:37:51.518Z,1.60
2018-12-15T03:38:51.493Z,1.60
2018-12-15T03:39:51.502Z,1.63
2018-12-15T03:40:51.460Z,1.62
2018-12-15T03:41:51.465Z,1.52
2018-12-15T03:42:51.465Z,1.47
2018-12-15T03:43:51.430Z,1.55
2018-12-15T03:44:51.432Z,1.59
2018-12-15T03:45:51.425Z,1.59
2018-12-15T03:46:51.407Z,1.55
2018-12-15T03:47:56.123Z,1.36
2018-12-15T03:48:52.385Z,1.22
2018-12-15T03:49:51.362Z,1.09
2018-12-15T03:50:51.348Z,1.20
2018-12-15T03:51:51.337Z,1.15
2018-12-15T03:52:51.371Z,1.16
2018-12-15T03:53:51.329Z,1.16
2018-12-15T03:54:51.307Z,1.16
2018-12-15T03:55:51.293Z,1.22
2018-12-15T03:56:51.286Z,1.34
2018-12-15T03:57:51.294Z,1.40
2018-12-15T03:58:51.294Z,1.48
2018-12-15T03:59:51.254Z,1.55
2018-12-15T04:00:51.241Z,1.51
2018-12-15T04:01:51.227Z,1.59
2018-12-15T04:02:51.237Z,1.60
2018-12-15T04:03:51.203Z,1.54
2018-12-15T04:04:51.216Z,1.63
2018-12-15T04:05:51.180Z,1.60
2018-12-15T04:06:51.170Z,1.62
2018-12-15T04:07:51.190Z,1.52
2018-12-15T04:08:51.148Z,1.51
2018-12-15T04:09:51.135Z,1.62
2018-12-15T04:10:51.148Z,1.63
2018-12-15T04:11:51.115Z,1.58
2018-12-15T04:12:51.101Z,1.52
2018-12-15T04:13:51.117Z,1.70
2018-12-15T04:14:51.082Z,1.80
2018-12-15T04:15:51.069Z,1.70
2018-12-15T04:16:51.072Z,1.73
2018-12-15T04:17:51.046Z,1.73
2018-12-15T04:18:51.059Z,1.83
2018-12-15T04:19:51.024Z,1.70
2018-12-15T04:20:51.024Z,1.62
2018-12-15T04:21:51.004Z,1.54
2018-12-15T04:22:51.020Z,1.45
2018-12-15T04:23:51.004Z,1.40
2018-12-15T04:24:50.976Z,1.36
2018-12-15T04:25:50.964Z,1.24
2018-12-15T04:26:50.955Z,1.41
2018-12-15T04:27:50.937Z,1.47
2018-12-15T04:28:51.031Z,1.47
2018-12-15T04:29:50.917Z,1.40
2018-12-15T04:30:50.914Z,1.45
2018-12-15T04:31:50.894Z,1.37
2018-12-15T04:32:50.878Z,1.29
2018-12-15T04:33:50.866Z,1.18
2018-12-15T04:34:50.905Z,1.27
2018-12-15T04:35:50.844Z,1.33
2018-12-15T04:36:50.832Z,1.29
2018-12-15T04:37:50.830Z,1.48
2018-12-15T04:38:50.817Z,1.44
2018-12-15T04:39:50.823Z,1.27
2018-12-15T04:40:50.801Z,1.33
2018-12-15T04:41:50.780Z,1.36
2018-12-15T04:42:50.769Z,1.30
2018-12-15T04:43:50.756Z,1.24
2018-12-15T04:44:50.768Z,1.16
2018-12-15T04:45:50.732Z,1.33
2018-12-15T04:46:50.737Z,1.32
2018-12-15T04:47:50.721Z,1.44
2018-12-15T04:48:50.699Z,1.40
2018-12-15T04:49:50.714Z,1.45
2018-12-15T04:50:50.678Z,1.30
2018-12-15T04:51:50.666Z,1.24
2018-12-15T04:52:50.694Z,1.22
2018-12-15T04:53:50.643Z,1.26
2018-12-15T04:54:50.654Z,1.36
2018-12-15T04:55:50.629Z,1.40
2018-12-15T04:56:50.609Z,1.36
2018-12-15T04:57:50.599Z,1.40
2018-12-15T04:58:50.624Z,1.34
2018-12-15T04:59:50.604Z,1.36
2018-12-15T05:00:50.565Z,1.40
2018-12-15T05:01:50.555Z,1.34
2018-12-15T05:02:50.542Z,1.15
2018-12-15T05:03:50.531Z,1.11
2018-12-15T05:04:50.572Z,1.20
2018-12-15T05:05:50.511Z,1.05
2018-12-15T05:06:50.497Z,1.16
2018-12-15T05:07:50.502Z,1.20
2018-12-15T05:08:50.474Z,1.26
2018-12-15T05:09:50.464Z,1.42
2018-12-15T05:10:50.513Z,1.30
2018-12-15T05:11:50.443Z,1.26
2018-12-15T05:12:50.432Z,1.18
2018-12-15T05:13:50.424Z,1.20
2018-12-15T05:14:50.407Z,1.30
2018-12-15T05:15:50.428Z,1.32
2018-12-15T05:16:50.420Z,1.18
2018-12-15T05:17:50.376Z,1.02
2018-12-15T05:18:50.364Z,0.83
2018-12-15T05:19:50.354Z,0.93
2018-12-15T05:20:50.367Z,0.94
2018-12-15T05:21:50.337Z,1.02
2018-12-15T05:22:50.339Z,1.05
2018-12-15T05:23:50.310Z,1.02
2018-12-15T05:24:50.303Z,0.97
2018-12-15T05:25:50.317Z,0.94
2018-12-15T05:26:50.282Z,0.97
2018-12-15T05:27:50.268Z,1.05
2018-12-15T05:28:50.296Z,1.04
2018-12-15T05:29:50.247Z,1.08
2018-12-15T05:30:50.237Z,1.32
2018-12-15T05:31:50.285Z,1.15
2018-12-15T05:32:50.216Z,1.18
2018-12-15T05:33:50.218Z,1.12
2018-12-15T05:34:50.228Z,1.32
2018-12-15T05:35:50.187Z,1.18
2018-12-15T05:36:50.194Z,1.22
2018-12-15T05:37:50.159Z,0.79
2018-12-15T05:38:50.149Z,0.80
2018-12-15T05:39:50.142Z,0.87
2018-12-15T05:40:50.145Z,0.91
2018-12-15T05:41:50.139Z,1.08
2018-12-15T05:42:50.108Z,0.98
2018-12-15T05:43:50.095Z,0.97
2018-12-15T05:44:50.081Z,0.75
2018-12-15T05:45:50.074Z,0.66
2018-12-15T05:46:50.131Z,0.68
2018-12-15T05:47:50.052Z,0.78
2018-12-15T05:48:50.041Z,0.83
2018-12-15T05:49:50.045Z,0.62
2018-12-15T05:50:50.021Z,0.39
2018-12-15T05:51:50.027Z,0.50
2018-12-15T05:52:50.043Z,0.62
2018-12-15T05:53:49.983Z,0.78
2018-12-15T05:54:49.989Z,0.97
2018-12-15T05:55:49.973Z,0.96
2018-12-15T05:56:49.979Z,0.97
2018-12-15T05:57:49.949Z,1.04
2018-12-15T05:58:49.962Z,1.15
2018-12-15T05:59:49.929Z,1.24
2018-12-15T06:00:49.911Z,1.23
2018-12-15T06:01:49.956Z,0.94
2018-12-15T06:02:49.886Z,0.87
2018-12-15T06:03:49.871Z,0.84
2018-12-15T06:04:49.882Z,0.83
2018-12-15T06:05:49.851Z,0.91
2018-12-15T06:06:49.840Z,0.98
2018-12-15T06:07:49.851Z,0.91
2018-12-15T06:08:49.817Z,0.94
2018-12-15T06:09:49.809Z,0.93
2018-12-15T06:10:49.817Z,0.97
2018-12-15T06:11:49.790Z,0.97
2018-12-15T06:12:49.794Z,0.87
2018-12-15T06:13:49.760Z,0.96
2018-12-15T06:14:49.749Z,1.05
2018-12-15T06:15:49.750Z,1.02
2018-12-15T06:16:49.769Z,0.94
2018-12-15T06:17:49.744Z,0.90
2018-12-15T06:18:49.705Z,0.96
2018-12-15T06:19:49.692Z,0.86
2018-12-15T06:20:49.681Z,0.91
2018-12-15T06:21:49.673Z,0.88
2018-12-15T06:22:49.694Z,0.86
2018-12-15T06:23:49.649Z,0.86
2018-12-15T06:24:49.640Z,0.97
2018-12-15T06:25:49.627Z,0.84
2018-12-15T06:26:49.615Z,0.88
2018-12-15T06:27:49.639Z,0.91
2018-12-15T06:28:49.605Z,0.91
2018-12-15T06:29:49.582Z,1.05
2018-12-15T06:30:49.582Z,0.94
2018-12-15T06:31:49.559Z,0.90
2018-12-15T06:32:49.548Z,0.97
2018-12-15T06:33:49.561Z,0.91
2018-12-15T06:34:49.553Z,0.88
2018-12-15T06:35:49.514Z,0.84
2018-12-15T06:36:49.505Z,0.93
2018-12-15T06:37:49.493Z,0.94
2018-12-15T06:38:49.504Z,0.97
2018-12-15T06:39:49.469Z,0.94
2018-12-15T06:40:49.491Z,0.93
2018-12-15T06:41:49.447Z,0.94
2018-12-15T06:42:49.438Z,0.83
2018-12-15T06:43:49.448Z,0.86
2018-12-15T06:44:49.414Z,0.79
2018-12-15T06:45:49.423Z,0.78
2018-12-15T06:46:49.391Z,0.84
2018-12-15T06:47:49.381Z,0.86
2018-12-15T06:48:49.393Z,0.87
2018-12-15T06:49:49.357Z,0.79
2018-12-15T06:50:49.346Z,0.69
2018-12-15T06:51:49.369Z,0.61
2018-12-15T06:52:49.325Z,0.60
2018-12-15T06:53:49.339Z,0.75
2018-12-15T06:54:49.303Z,0.84
2018-12-15T06:55:49.293Z,0.97
2018-12-15T06:56:49.283Z,0.98
2018-12-15T06:57:49.294Z,1.02
2018-12-15T06:58:49.281Z,1.12
2018-12-15T06:59:49.248Z,1.20
2018-12-15T07:00:49.238Z,1.09
2018-12-15T07:01:49.227Z,0.90
2018-12-15T07:02:49.215Z,0.91
2018-12-15T07:03:49.425Z,0.91
2018-12-15T07:04:49.194Z,0.87
2018-12-15T07:05:49.183Z,0.79
2018-12-15T07:06:49.170Z,0.69
2018-12-15T07:07:49.162Z,0.62
2018-12-15T07:08:49.149Z,0.60
2018-12-15T07:09:49.187Z,0.66
2018-12-15T07:10:49.157Z,0.80
2018-12-15T07:11:49.116Z,0.83
2018-12-15T07:12:49.104Z,0.70
2018-12-15T07:13:49.092Z,0.86
2018-12-15T07:14:49.103Z,0.91
2018-12-15T07:15:49.105Z,0.83
2018-12-15T07:16:49.060Z,0.96
2018-12-15T07:17:49.052Z,0.91
2018-12-15T07:18:50.063Z,0.72
2018-12-15T07:19:49.049Z,0.70
2018-12-15T07:20:49.014Z,0.80
2018-12-15T07:21:49.031Z,0.87
2018-12-15T07:22:48.991Z,0.68
2018-12-15T07:23:48.982Z,0.50
2018-12-15T07:24:48.999Z,0.60
2018-12-15T07:25:48.961Z,0.73
2018-12-15T07:26:48.951Z,0.78
2018-12-15T07:27:48.949Z,0.75
2018-12-15T07:28:48.924Z,0.65
2018-12-15T07:29:48.936Z,0.75
2018-12-15T07:30:48.904Z,0.79
2018-12-15T07:31:48.892Z,0.75
2018-12-15T07:32:48.882Z,0.62
2018-12-15T07:33:48.878Z,0.73
2018-12-15T07:34:49.043Z,0.84
2018-12-15T07:35:48.847Z,0.79
2018-12-15T07:36:48.835Z,0.79
2018-12-15T07:37:48.824Z,0.80
2018-12-15T07:38:48.816Z,0.75
2018-12-15T07:39:48.820Z,0.86
2018-12-15T07:40:48.815Z,0.78
2018-12-15T07:41:48.779Z,0.84
2018-12-15T07:42:48.769Z,0.75
2018-12-15T07:43:48.756Z,0.84
2018-12-15T07:44:48.746Z,0.75
2018-12-15T07:45:48.773Z,0.70
2018-12-15T07:46:48.724Z,0.73
2018-12-15T07:47:48.721Z,0.79
2018-12-15T07:48:51.555Z,0.84
2018-12-15T07:49:48.691Z,0.75
2018-12-15T07:50:48.704Z,0.69
2018-12-15T07:51:48.688Z,0.72
2018-12-15T07:52:48.657Z,0.73
2018-12-15T07:53:48.648Z,0.68
2018-12-15T07:54:48.635Z,0.75
2018-12-15T07:55:48.652Z,0.80
2018-12-15T07:56:48.613Z,0.78
2018-12-15T07:57:48.625Z,0.72
2018-12-15T07:58:48.590Z,0.68
2018-12-15T07:59:48.584Z,0.73
2018-12-15T08:00:48.607Z,0.84
2018-12-15T08:01:48.556Z,0.86
2018-12-15T08:02:48.545Z,0.87
2018-12-15T08:03:48.570Z,0.86
2018-12-15T08:04:48.522Z,0.78
2018-12-15T08:05:48.511Z,0.75
2018-12-15T08:06:48.525Z,0.90
2018-12-15T08:07:48.498Z,0.80
2018-12-15T08:08:48.482Z,0.80
2018-12-15T08:09:48.498Z,0.84
2018-12-15T08:10:48.457Z,0.83
2018-12-15T08:11:48.470Z,0.80
2018-12-15T08:12:48.442Z,0.70
2018-12-15T08:13:48.423Z,0.79
2018-12-15T08:14:48.412Z,0.88
2018-12-15T08:15:48.415Z,0.94
2018-12-15T08:16:48.415Z,0.98
2018-12-15T08:17:48.377Z,1.08
2018-12-15T08:18:48.369Z,1.12
2018-12-15T08:19:48.362Z,1.20
2018-12-15T08:20:48.349Z,1.23
2018-12-15T08:21:48.396Z,1.20
2018-12-15T08:22:48.323Z,1.02
2018-12-15T08:23:48.317Z,0.80
2018-12-15T08:24:48.302Z,0.65
2018-12-15T08:25:48.295Z,0.66
2018-12-15T08:26:48.278Z,0.84
2018-12-15T08:27:48.329Z,0.94
2018-12-15T08:28:48.315Z,1.08
2018-12-15T08:29:48.244Z,1.14
2018-12-15T08:30:48.234Z,1.33
2018-12-15T08:31:48.225Z,1.18
2018-12-15T08:32:48.234Z,1.20
2018-12-15T08:33:48.222Z,1.09
2018-12-15T08:34:48.190Z,1.02
2018-12-15T08:35:48.181Z,1.23
2018-12-15T08:36:48.169Z,1.08
2018-12-15T08:37:48.178Z,1.23
2018-12-15T08:38:48.154Z,1.15
2018-12-15T08:39:48.169Z,1.24
2018-12-15T08:40:48.123Z,1.16
2018-12-15T08:41:48.112Z,1.24
2018-12-15T08:42:48.121Z,1.08
2018-12-15T08:43:48.087Z,1.09
2018-12-15T08:44:48.076Z,0.93
2018-12-15T08:45:48.093Z,0.88
2018-12-15T08:46:48.054Z,0.90
2018-12-15T08:47:48.070Z,0.88
2018-12-15T08:48:48.034Z,0.79
2018-12-15T08:49:48.026Z,0.86
2018-12-15T08:50:48.024Z,0.84
2018-12-15T08:51:48.039Z,0.69
2018-12-15T08:52:48.013Z,0.62
2018-12-15T08:53:47.977Z,0.68
2018-12-15T08:54:47.965Z,0.60
2018-12-15T08:55:47.956Z,0.68
2018-12-15T08:56:47.945Z,0.86
2018-12-15T08:57:47.989Z,0.80
2018-12-15T08:58:47.921Z,0.91
2018-12-15T08:59:47.912Z,0.86
2018-12-15T09:00:47.903Z,0.80
2018-12-15T09:01:47.890Z,0.84
2018-12-15T09:02:47.901Z,0.88
2018-12-15T09:03:47.895Z,0.79
2018-12-15T09:04:47.855Z,0.83
2018-12-15T09:05:47.845Z,0.62
2018-12-15T09:06:47.832Z,0.70
2018-12-15T09:07:47.847Z,0.88
2018-12-15T09:08:47.818Z,0.94
2018-12-15T09:09:47.809Z,1.02
2018-12-15T09:10:47.790Z,1.02
2018-12-15T09:11:47.777Z,0.90
2018-12-15T09:12:47.791Z,1.00
2018-12-15T09:13:47.754Z,0.86
2018-12-15T09:14:47.749Z,0.93
2018-12-15T09:15:47.761Z,1.05
2018-12-15T09:16:47.731Z,1.15
2018-12-15T09:17:47.761Z,1.05
2018-12-15T09:18:47.699Z,0.96
2018-12-15T09:19:47.689Z,0.87
2018-12-15T09:20:47.680Z,0.88
2018-12-15T09:21:47.676Z,0.86
2018-12-15T09:22:47.654Z,0.69
2018-12-15T09:23:47.666Z,0.75
2018-12-15T09:24:47.633Z,0.69
2018-12-15T09:25:47.622Z,0.72
2018-12-15T09:26:47.611Z,0.75
2018-12-15T09:27:47.627Z,0.79
2018-12-15T09:28:47.619Z,0.79
2018-12-15T09:29:47.581Z,0.87
2018-12-15T09:30:47.566Z,0.86
2018-12-15T09:31:47.555Z,0.80
2018-12-15T09:32:47.546Z,0.68
2018-12-15T09:33:47.591Z,0.75
2018-12-15T09:34:47.539Z,0.49
2018-12-15T09:35:47.512Z,0.50
2018-12-15T09:36:47.498Z,0.69
2018-12-15T09:37:47.487Z,0.57
2018-12-15T09:38:47.512Z,0.70
2018-12-15T09:39:47.481Z,0.80
2018-12-15T09:40:47.455Z,0.78
2018-12-15T09:41:47.444Z,0.69
2018-12-15T09:42:47.439Z,0.55
2018-12-15T09:43:47.447Z,0.80
2018-12-15T09:44:47.415Z,0.69
2018-12-15T09:45:47.420Z,0.75
2018-12-15T09:46:47.389Z,0.68
2018-12-15T09:47:47.376Z,0.66
2018-12-15T09:48:47.389Z,0.70
2018-12-15T09:49:47.355Z,0.68
2018-12-15T09:50:47.361Z,0.69
2018-12-15T09:51:47.373Z,0.69
2018-12-15T09:52:47.320Z,0.69
2018-12-15T09:53:47.339Z,0.78
2018-12-15T09:54:47.299Z,0.86
2018-12-15T09:55:47.288Z,0.91
2018-12-15T09:56:47.278Z,0.88
2018-12-15T09:57:47.281Z,0.88
2018-12-15T09:58:47.277Z,0.76
2018-12-15T09:59:47.243Z,0.73
2018-12-15T10:00:47.231Z,0.75
2018-12-15T10:01:47.224Z,0.87
2018-12-15T10:02:47.211Z,0.84
2018-12-15T10:03:47.247Z,0.83
2018-12-15T10:04:47.188Z,0.70
2018-12-15T10:05:47.183Z,0.68
2018-12-15T10:06:47.165Z,0.66
2018-12-15T10:07:47.155Z,0.58
2018-12-15T10:08:47.167Z,0.53
2018-12-15T10:09:47.162Z,0.68
2018-12-15T10:10:47.120Z,0.62
2018-12-15T10:11:47.110Z,0.78
2018-12-15T10:12:47.099Z,0.86
2018-12-15T10:13:47.123Z,0.86
2018-12-15T10:14:47.087Z,0.80
2018-12-15T10:15:47.108Z,0.93
2018-12-15T10:16:47.055Z,0.87
2018-12-15T10:17:47.057Z,0.65
2018-12-15T10:18:47.060Z,0.61
2018-12-15T10:19:47.020Z,0.70
2018-12-15T10:20:47.010Z,0.88
2018-12-15T10:21:47.030Z,0.83
2018-12-15T10:22:46.990Z,0.53
2018-12-15T10:23:47.056Z,0.58
2018-12-15T10:24:46.967Z,0.55
2018-12-15T10:25:46.952Z,0.78
2018-12-15T10:26:46.944Z,0.87
2018-12-15T10:27:46.944Z,0.94
2018-12-15T10:28:46.952Z,0.60
2018-12-15T10:29:46.908Z,0.73
2018-12-15T10:30:46.899Z,0.80
2018-12-15T10:31:46.885Z,0.73
2018-12-15T10:32:46.878Z,0.80
2018-12-15T10:33:46.945Z,0.76
2018-12-15T10:34:46.862Z,0.73
2018-12-15T10:35:46.841Z,0.72
2018-12-15T10:36:46.839Z,0.88
2018-12-15T10:37:46.821Z,0.83
2018-12-15T10:38:46.822Z,0.94
2018-12-15T10:39:46.821Z,0.86
2018-12-15T10:40:46.809Z,1.02
2018-12-15T10:41:46.778Z,1.06
2018-12-15T10:42:46.763Z,0.98
2018-12-15T10:43:46.751Z,1.02
2018-12-15T10:44:46.766Z,0.90
2018-12-15T10:45:46.736Z,1.06
2018-12-15T10:46:46.736Z,1.22
2018-12-15T10:47:46.706Z,1.22
2018-12-15T10:48:46.695Z,1.20
2018-12-15T10:49:46.706Z,0.96
2018-12-15T10:50:46.672Z,0.91
2018-12-15T10:51:46.666Z,0.96
2018-12-15T10:52:46.673Z,0.86
2018-12-15T10:53:46.650Z,0.86
2018-12-15T10:54:46.660Z,0.93
2018-12-15T10:55:46.623Z,1.04
2018-12-15T10:56:46.607Z,1.22
2018-12-15T10:57:46.597Z,1.30
2018-12-15T10:58:46.622Z,1.37
2018-12-15T10:59:46.599Z,1.30
2018-12-15T11:00:46.578Z,1.18
2018-12-15T11:01:46.553Z,1.26
2018-12-15T11:02:46.539Z,1.15
2018-12-15T11:03:46.527Z,1.27
2018-12-15T11:04:46.588Z,1.30
2018-12-15T11:05:46.505Z,1.16
2018-12-15T11:06:46.503Z,1.26
2018-12-15T11:07:46.483Z,1.24
2018-12-15T11:08:46.472Z,1.29
2018-12-15T11:09:46.501Z,1.37
2018-12-15T11:10:46.479Z,1.41
2018-12-15T11:11:46.447Z,1.47
2018-12-15T11:12:46.431Z,1.44
2018-12-15T11:13:46.418Z,1.27
2018-12-15T11:14:46.450Z,1.18
2018-12-15T11:15:46.421Z,1.36
2018-12-15T11:16:46.398Z,1.18
2018-12-15T11:17:46.375Z,1.15
2018-12-15T11:18:46.363Z,1.22
2018-12-15T11:19:46.353Z,1.20
2018-12-15T11:20:46.365Z,1.18
2018-12-15T11:21:46.347Z,1.27
2018-12-15T11:22:46.344Z,1.33
2018-12-15T11:23:46.309Z,1.30
2018-12-15T11:24:46.299Z,1.45
2018-12-15T11:25:46.314Z,1.33
2018-12-15T11:26:46.277Z,1.37
2018-12-15T11:27:46.267Z,1.62
2018-12-15T11:28:46.283Z,1.47
2018-12-15T11:29:46.243Z,1.55
2018-12-15T11:30:46.264Z,1.44
2018-12-15T11:31:46.221Z,1.42
2018-12-15T11:32:46.211Z,1.47
2018-12-15T11:33:46.215Z,1.47
2018-12-15T11:34:46.202Z,1.54
2018-12-15T11:35:46.223Z,1.45
2018-12-15T11:36:46.167Z,1.26
2018-12-15T11:37:46.161Z,1.30
2018-12-15T11:38:46.145Z,1.42
2018-12-15T11:39:46.134Z,1.30
2018-12-15T11:40:46.166Z,1.54
2018-12-15T11:41:46.112Z,1.32
2018-12-15T11:42:46.107Z,1.44
2018-12-15T11:43:46.101Z,1.34
2018-12-15T11:44:46.082Z,1.51
2018-12-15T11:45:46.101Z,1.54
2018-12-15T11:46:46.058Z,1.54
2018-12-15T11:47:46.075Z,1.50
2018-12-15T11:48:46.046Z,1.48
2018-12-15T11:49:46.036Z,1.41
2018-12-15T11:50:46.093Z,1.52
2018-12-15T11:51:46.003Z,1.52
2018-12-15T11:52:46.008Z,1.65
2018-12-15T11:53:45.996Z,1.62
2018-12-15T11:54:46.001Z,1.68
2018-12-15T11:55:45.987Z,1.55
2018-12-15T11:56:45.949Z,1.54
2018-12-15T11:57:45.954Z,1.59
2018-12-15T11:58:45.940Z,1.55
2018-12-15T11:59:45.917Z,1.76
2018-12-15T12:00:45.944Z,1.76
2018-12-15T12:01:45.899Z,1.77
2018-12-15T12:02:45.887Z,1.77
2018-12-15T12:03:45.874Z,1.72
2018-12-15T12:04:45.867Z,1.54
2018-12-15T12:05:45.888Z,1.58
2018-12-15T12:06:45.856Z,1.50
2018-12-15T12:07:45.830Z,1.54
2018-12-15T12:08:45.819Z,1.72
2018-12-15T12:09:45.811Z,1.73
2018-12-15T12:10:45.842Z,1.69
2018-12-15T12:11:45.795Z,1.54
2018-12-15T12:12:45.797Z,1.58
2018-12-15T12:13:45.767Z,1.54
2018-12-15T12:14:45.753Z,1.68
2018-12-15T12:15:45.743Z,1.55
2018-12-15T12:16:45.763Z,1.45
2018-12-15T12:17:45.732Z,1.55
2018-12-15T12:18:45.710Z,1.54
2018-12-15T12:19:50.133Z,1.51
2018-12-15T12:20:45.688Z,1.60
2018-12-15T12:21:45.715Z,1.59
2018-12-15T12:22:45.683Z,1.68
2018-12-15T12:23:45.656Z,1.51
2018-12-15T12:24:45.648Z,1.37
2018-12-15T12:25:45.633Z,1.33
2018-12-15T12:26:45.667Z,1.50
2018-12-15T12:27:45.616Z,1.47
2018-12-15T12:28:45.602Z,1.55
2018-12-15T12:29:45.600Z,1.50
2018-12-15T12:30:45.580Z,1.40
2018-12-15T12:31:45.591Z,1.45
2018-12-15T12:32:45.571Z,1.33
2018-12-15T12:33:45.549Z,1.42
2018-12-15T12:34:45.535Z,1.32
2018-12-15T12:35:45.532Z,1.34
2018-12-15T12:36:45.541Z,1.48
2018-12-15T12:37:45.502Z,1.42
2018-12-15T12:38:45.493Z,1.30
2018-12-15T12:39:45.496Z,1.29
2018-12-15T12:40:45.471Z,1.34
2018-12-15T12:41:45.487Z,1.50
2018-12-15T12:42:45.450Z,1.40
2018-12-15T12:43:45.439Z,1.42
2018-12-15T12:44:45.427Z,1.52
2018-12-15T12:45:45.439Z,1.58
2018-12-15T12:46:45.429Z,1.45
2018-12-15T12:47:45.395Z,1.45
2018-12-15T12:48:45.383Z,1.47
2018-12-15T12:49:45.371Z,1.30
2018-12-15T12:50:45.362Z,1.41
2018-12-15T12:51:45.401Z,1.37
2018-12-15T12:52:45.341Z,1.42
2018-12-15T12:53:45.334Z,1.45
2018-12-15T12:54:45.317Z,1.45
2018-12-15T12:55:45.306Z,1.40
2018-12-15T12:56:45.600Z,1.47
2018-12-15T12:57:45.293Z,1.51
2018-12-15T12:58:45.286Z,1.23
2018-12-15T12:59:45.269Z,1.04
2018-12-15T13:00:45.264Z,1.15
2018-12-15T13:01:45.242Z,1.36
2018-12-15T13:02:45.251Z,1.27
2018-12-15T13:03:45.241Z,1.29
2018-12-15T13:04:45.214Z,1.27
2018-12-15T13:05:45.196Z,1.36
2018-12-15T13:06:45.185Z,1.45
2018-12-15T13:07:45.195Z,1.37
2018-12-15T13:08:45.167Z,1.44
2018-12-15T13:09:45.185Z,1.36
2018-12-15T13:10:45.140Z,1.36
2018-12-15T13:11:45.140Z,1.32
2018-12-15T13:12:45.146Z,1.27
2018-12-15T13:13:45.107Z,1.15
2018-12-15T13:14:45.102Z,1.36
2018-12-15T13:15:45.107Z,1.27
2018-12-15T13:16:45.074Z,1.23
2018-12-15T13:17:45.094Z,1.22
2018-12-15T13:18:45.053Z,1.20